createdAt,value
2018-12-17T00:01:41.795Z,0.90
2018-12-17T00:06:44.832Z,0.92
2018-12-17T00:11:47.359Z,0.93
2018-12-17T00:16:49.853Z,0.95
2018-12-17T00:21:52.240Z,0.95
2018-12-17T00:26:54.722Z,0.97
2018-12-17T00:31:57.143Z,0.96
2018-12-17T00:36:59.820Z,1.00
2018-12-17T00:42:02.640Z,1.00
2018-12-17T00:47:05.069Z,0.99
2018-12-17T00:52:07.481Z,1.01
2018-12-17T00:57:09.990Z,0.99
2018-12-17T01:02:12.383Z,1.06
2018-12-17T01:07:14.780Z,1.07
2018-12-17T01:12:17.339Z,1.04
2018-12-17T01:17:19.978Z,1.06
2018-12-17T01:22:22.467Z,1.08
2018-12-17T01:27:24.949Z,1.07
2018-12-17T01:32:27.426Z,1.08
2018-12-17T01:37:29.836Z,1.09
2018-12-17T01:42:32.486Z,1.05
2018-12-17T01:47:34.972Z,1.05
2018-12-17T01:52:37.374Z,1.04
2018-12-17T01:57:39.902Z,1.06
2018-12-17T02:02:42.360Z,1.03
2018-12-17T02:07:44.814Z,1.07
2018-12-17T02:12:47.326Z,0.88
2018-12-17T02:17:49.756Z,1.07
2018-12-17T02:22:52.167Z,1.12
2018-12-17T02:27:54.574Z,1.12
2018-12-17T02:32:57.071Z,1.13
2018-12-17T02:37:59.439Z,1.20
2018-12-17T02:43:01.967Z,1.20
2018-12-17T02:48:04.374Z,1.21
2018-12-17T02:53:06.816Z,1.25
2018-12-17T02:58:09.233Z,1.22
2018-12-17T03:03:11.721Z,1.25
2018-12-17T03:08:14.146Z,1.27
2018-12-17T03:13:16.576Z,1.27
2018-12-17T03:18:18.963Z,1.32
2018-12-17T03:23:21.394Z,1.31
2018-12-17T03:28:23.787Z,1.34
2018-12-17T03:33:26.158Z,1.36
2018-12-17T03:38:28.691Z,1.28
2018-12-17T03:43:31.094Z,1.39
2018-12-17T03:48:33.603Z,1.38
2018-12-17T03:53:36.006Z,1.41
2018-12-17T03:58:38.333Z,1.37
2018-12-17T04:03:41.926Z,1.34
2018-12-17T04:08:44.414Z,1.32
2018-12-17T04:13:52.203Z,1.32
2018-12-17T04:18:54.722Z,1.27
2018-12-17T04:23:57.414Z,1.33
2018-12-17T04:29:06.632Z,1.33
2018-12-17T04:34:04.413Z,1.34
2018-12-17T04:39:07.037Z,1.34
2018-12-17T04:44:09.932Z,1.35
2018-12-17T04:49:12.293Z,1.39
2018-12-17T04:54:14.715Z,1.48
2018-12-17T04:59:17.110Z,1.46
2018-12-17T05:04:19.773Z,1.43
2018-12-17T05:09:22.190Z,1.52
2018-12-17T05:14:24.574Z,1.52
2018-12-17T05:19:26.988Z,1.59
2018-12-17T05:24:29.416Z,1.52
2018-12-17T05:29:31.694Z,1.57
2018-12-17T05:34:34.129Z,1.68
2018-12-17T05:39:36.614Z,1.65
2018-12-17T05:44:39.103Z,1.71
2018-12-17T05:49:41.466Z,1.75
2018-12-17T05:54:43.851Z,1.79
2018-12-17T05:59:46.223Z,1.86
2018-12-17T06:04:48.576Z,1.81
2018-12-17T06:09:51.494Z,1.81
2018-12-17T06:14:53.843Z,1.83
2018-12-17T06:19:56.579Z,1.83
2018-12-17T06:24:59.206Z,1.87
2018-12-17T06:30:01.544Z,1.80
2018-12-17T06:35:04.532Z,1.81
2018-12-17T06:40:10.336Z,1.81
2018-12-17T06:45:11.626Z,1.80
2018-12-17T06:50:14.087Z,1.78
2018-12-17T06:55:17.210Z,1.79
2018-12-17T07:00:19.918Z,1.78
2018-12-17T07:05:22.310Z,1.78
2018-12-17T07:10:24.922Z,1.80
2018-12-17T07:15:27.348Z,1.74
2018-12-17T07:20:29.761Z,1.78
2018-12-17T07:25:32.226Z,1.82
2018-12-17T07:30:34.563Z,1.84
2018-12-17T07:35:36.956Z,1.88
2018-12-17T07:40:39.240Z,1.90
2018-12-17T07:45:42.469Z,1.97
2018-12-17T07:50:44.747Z,1.99
2018-12-17T07:55:47.793Z,1.99
2018-12-17T08:00:50.128Z,2.02
2018-12-17T08:05:52.462Z,2.05
2018-12-17T08:10:56.160Z,2.08
2018-12-17T08:15:58.421Z,2.14
2018-12-17T08:21:00.762Z,2.19
2018-12-17T08:26:03.352Z,2.23
2018-12-17T08:31:05.878Z,2.23
2018-12-17T08:36:08.951Z,2.23
2018-12-17T08:41:11.303Z,2.27
2018-12-17T08:46:13.609Z,2.26
2018-12-17T08:51:15.997Z,2.26
2018-12-17T08:56:18.338Z,2.29
2018-12-17T09:01:20.817Z,2.36
2018-12-17T09:06:23.530Z,2.36
2018-12-17T09:11:26.155Z,2.40
2018-12-17T09:16:28.474Z,2.43
2018-12-17T09:21:30.821Z,2.43
2018-12-17T09:26:33.200Z,2.45
2018-12-17T09:31:35.595Z,2.55
2018-12-17T09:36:38.167Z,2.62
2018-12-17T09:41:40.754Z,2.61
2018-12-17T09:46:43.579Z,2.68
2018-12-17T09:51:46.101Z,2.71
2018-12-17T09:56:48.535Z,2.70
2018-12-17T10:01:50.948Z,2.71
2018-12-17T10:06:53.217Z,2.73
2018-12-17T10:11:55.763Z,2.81
2018-12-17T10:16:58.175Z,2.88
2018-12-17T10:22:00.752Z,2.89
2018-12-17T10:27:03.239Z,2.94
2018-12-17T10:32:05.689Z,3.00
2018-12-17T10:37:08.422Z,3.00
2018-12-17T10:42:10.864Z,3.07
2018-12-17T10:47:13.448Z,3.05
2018-12-17T10:52:15.968Z,3.09
2018-12-17T10:57:18.342Z,3.15
2018-12-17T11:02:24.063Z,3.20
2018-12-17T11:07:26.434Z,3.21
2018-12-17T11:12:28.790Z,3.16
2018-12-17T11:17:31.383Z,3.19
2018-12-17T11:22:35.127Z,3.18
2018-12-17T11:27:37.500Z,3.19
2018-12-17T11:32:43.345Z,3.18
2018-12-17T11:37:45.713Z,3.16
2018-12-17T11:42:48.053Z,3.21
2018-12-17T11:47:50.440Z,3.26
2018-12-17T11:52:53.349Z,3.27
2018-12-17T11:58:08.383Z,3.25
2018-12-17T12:03:10.902Z,3.30
2018-12-17T12:08:13.190Z,3.45
2018-12-17T12:13:15.578Z,3.49
2018-12-17T12:18:18.193Z,3.47
2018-12-17T12:23:20.557Z,3.39
2018-12-17T12:28:22.936Z,3.38
2018-12-17T12:33:25.365Z,3.44
2018-12-17T12:38:27.826Z,3.52
2018-12-17T12:43:30.254Z,3.50
2018-12-17T12:48:32.597Z,3.50
2018-12-17T12:53:35.190Z,3.52
2018-12-17T12:58:38.442Z,3.53
2018-12-17T13:03:41.825Z,3.44
2018-12-17T13:08:44.355Z,3.51
2018-12-17T13:13:46.999Z,3.55
2018-12-17T13:18:49.442Z,3.61
2018-12-17T13:23:51.897Z,3.60
2018-12-17T13:28:54.238Z,3.63
2018-12-17T13:33:56.589Z,3.66
2018-12-17T13:38:59.261Z,3.73
2018-12-17T13:44:02.394Z,3.63
2018-12-17T13:49:05.400Z,3.67
2018-12-17T13:54:07.853Z,3.70
2018-12-17T13:59:10.132Z,3.75
2018-12-17T14:04:12.571Z,3.75
2018-12-17T14:09:16.417Z,3.74
2018-12-17T14:14:18.740Z,3.74
2018-12-17T14:19:26.063Z,3.79
2018-12-17T14:24:29.414Z,3.78
2018-12-17T14:29:31.791Z,3.83
2018-12-17T14:34:34.149Z,3.79
2018-12-17T14:39:36.544Z,3.87
2018-12-17T14:44:39.021Z,3.84
2018-12-17T14:49:41.479Z,3.85
2018-12-17T14:54:44.404Z,3.83
2018-12-17T14:59:47.027Z,3.85
2018-12-17T15:04:49.460Z,3.85
2018-12-17T15:09:51.839Z,3.87
2018-12-17T15:14:54.878Z,3.87
2018-12-17T15:19:57.650Z,3.88
2018-12-17T15:24:59.988Z,3.88
2018-12-17T15:30:02.603Z,3.90
2018-12-17T15:35:05.515Z,3.88
2018-12-17T15:40:08.150Z,3.90
2018-12-17T15:45:10.641Z,4.05
2018-12-17T15:50:12.994Z,3.97
2018-12-17T15:55:15.364Z,3.98
2018-12-17T16:00:18.786Z,3.95
2018-12-17T16:05:21.337Z,3.96
2018-12-17T16:10:23.853Z,4.03
2018-12-17T16:15:26.242Z,4.06
2018-12-17T16:20:28.704Z,4.04
2018-12-17T16:25:32.096Z,4.05
2018-12-17T16:30:34.514Z,4.08
2018-12-17T16:35:37.997Z,4.08
2018-12-17T16:40:40.806Z,4.10
2018-12-17T16:45:43.623Z,4.10
2018-12-17T16:50:45.972Z,4.13
2018-12-17T16:55:48.372Z,4.14
2018-12-17T17:00:50.667Z,4.11
2018-12-17T17:05:53.054Z,4.09
2018-12-17T17:10:55.469Z,4.14
2018-12-17T17:15:58.224Z,4.18
2018-12-17T17:21:00.817Z,4.10
2018-12-17T17:26:03.963Z,4.09
2018-12-17T17:31:06.645Z,4.05
2018-12-17T17:36:09.123Z,4.06
2018-12-17T17:41:11.585Z,4.11
2018-12-17T17:46:14.206Z,4.07
2018-12-17T17:51:16.647Z,4.10
2018-12-17T17:56:19.041Z,4.13
2018-12-17T18:01:21.515Z,4.11
2018-12-17T18:06:24.043Z,4.09
2018-12-17T18:11:26.489Z,4.09
2018-12-17T18:16:28.971Z,4.10
2018-12-17T18:21:31.682Z,4.08
2018-12-17T18:26:34.203Z,4.12
2018-12-17T18:31:37.110Z,4.18
2018-12-17T18:36:39.691Z,4.15
2018-12-17T18:41:42.241Z,4.11
2018-12-17T18:46:44.661Z,4.15
2018-12-17T18:51:47.059Z,4.24
2018-12-17T18:56:49.788Z,4.35
2018-12-17T19:01:52.238Z,4.31
2018-12-17T19:06:54.762Z,4.25
2018-12-17T19:11:57.417Z,4.22
2018-12-17T19:16:59.762Z,4.24
2018-12-17T19:22:02.377Z,4.30
2018-12-17T19:27:04.831Z,4.35
2018-12-17T19:32:07.322Z,4.47
2018-12-17T19:37:09.964Z,4.56
2018-12-17T19:42:13.326Z,4.46
2018-12-17T19:47:15.855Z,4.41
2018-12-17T19:52:18.480Z,4.40
2018-12-17T19:57:21.111Z,4.39
2018-12-17T20:02:24.495Z,4.32
2018-12-17T20:07:29.061Z,4.31
2018-12-17T20:12:31.663Z,4.35
2018-12-17T20:17:34.097Z,4.34
2018-12-17T20:22:36.505Z,4.26
2018-12-17T20:27:39.139Z,4.08
2018-12-17T20:32:41.721Z,4.22
2018-12-17T20:37:44.167Z,4.19
2018-12-17T20:42:46.676Z,4.15
2018-12-17T20:47:49.114Z,4.15
2018-12-17T20:52:51.502Z,4.09
2018-12-17T20:57:53.925Z,4.07
2018-12-17T21:03:00.198Z,4.07
2018-12-17T21:08:01.431Z,4.17
2018-12-17T21:13:03.882Z,4.07
2018-12-17T21:18:06.367Z,4.11
2018-12-17T21:23:09.555Z,4.09
2018-12-17T21:28:12.081Z,4.08
2018-12-17T21:33:14.585Z,4.05
2018-12-17T21:38:17.038Z,4.03
2018-12-17T21:43:19.658Z,4.01
2018-12-17T21:48:22.622Z,3.92
2018-12-17T21:53:25.013Z,3.96
2018-12-17T21:58:28.387Z,3.97
2018-12-17T22:03:30.996Z,3.96
2018-12-17T22:08:33.470Z,3.96
2018-12-17T22:13:36.027Z,3.96
2018-12-17T22:18:38.519Z,3.87
2018-12-17T22:23:40.866Z,3.84
2018-12-17T22:28:43.357Z,3.83
2018-12-17T22:33:45.874Z,3.79
2018-12-17T22:38:48.325Z,3.75
2018-12-17T22:43:50.698Z,3.77
2018-12-17T22:48:53.134Z,3.79
2018-12-17T22:53:55.522Z,3.78
2018-12-17T22:58:58.001Z,3.84
2018-12-17T23:04:00.401Z,3.86
2018-12-17T23:09:04.960Z,3.85
2018-12-17T23:14:18.639Z,3.89
2018-12-17T23:19:19.983Z,3.90
2018-12-17T23:24:22.513Z,3.97
2018-12-17T23:29:25.042Z,3.99
2018-12-17T23:34:27.777Z,4.01
2018-12-17T23:39:30.227Z,4.01
2018-12-17T23:44:36.209Z,4.02
2018-12-17T23:49:38.699Z,3.99
2018-12-17T23:54:41.663Z,3.99
2018-12-17T23:59:44.248Z,4.03
